createdAt,value
2023-02-22T00:01:28.203Z,6.48
2023-02-22T00:03:57.088Z,6.53
2023-02-22T00:06:31.263Z,6.46
2023-02-22T00:09:00.007Z,6.31
2023-02-22T00:11:28.943Z,6.44
2023-02-22T00:13:58.299Z,6.40
2023-02-22T00:16:27.322Z,6.39
2023-02-22T00:18:55.821Z,6.34
2023-02-22T00:21:24.395Z,6.35
2023-02-22T00:23:56.878Z,6.35
2023-02-22T00:26:26.889Z,6.32
2023-02-22T00:28:57.397Z,6.29
2023-02-22T00:31:26.101Z,6.27
2023-02-22T00:33:54.426Z,6.23
2023-02-22T00:36:23.531Z,6.18
2023-02-22T00:38:56.193Z,6.20
2023-02-22T00:41:25.717Z,6.29
2023-02-22T00:43:56.343Z,6.31
2023-02-22T00:46:24.172Z,6.22
2023-02-22T00:48:53.305Z,6.12
2023-02-22T00:51:22.600Z,6.23
2023-02-22T00:53:50.711Z,6.30
2023-02-22T00:56:20.282Z,6.25
2023-02-22T00:58:49.794Z,6.14
2023-02-22T01:01:18.720Z,6.23
2023-02-22T01:03:47.182Z,6.13
2023-02-22T01:06:15.362Z,6.15
2023-02-22T01:08:45.992Z,6.00
2023-02-22T01:11:17.865Z,5.97
2023-02-22T01:13:46.531Z,5.90
2023-02-22T01:16:16.385Z,5.93
2023-02-22T01:18:45.450Z,5.83
2023-02-22T01:21:16.717Z,5.79
2023-02-22T01:23:46.708Z,5.65
2023-02-22T01:26:14.977Z,5.74
2023-02-22T01:28:46.113Z,5.71
2023-02-22T01:31:19.137Z,5.68
2023-02-22T01:33:50.873Z,5.69
2023-02-22T01:36:19.430Z,5.70
2023-02-22T01:38:48.741Z,5.72
2023-02-22T01:41:18.444Z,5.70
2023-02-22T01:43:49.056Z,5.63
2023-02-22T01:46:26.022Z,5.68
2023-02-22T01:49:00.674Z,5.66
2023-02-22T01:51:32.340Z,5.68
2023-02-22T01:54:03.921Z,5.50
2023-02-22T01:56:37.593Z,5.59
2023-02-22T01:59:10.053Z,5.56
2023-02-22T02:02:00.739Z,5.40
2023-02-22T02:04:29.971Z,5.28
2023-02-22T02:07:03.892Z,5.40
2023-02-22T02:10:01.371Z,5.34
2023-02-22T02:12:33.424Z,5.32
2023-02-22T02:15:18.197Z,5.26
2023-02-22T02:17:47.974Z,5.01
2023-02-22T02:20:25.617Z,5.07
2023-02-22T02:23:01.163Z,5.19
2023-02-22T02:26:08.910Z,5.15
2023-02-22T02:29:03.193Z,5.23
2023-02-22T02:32:08.033Z,5.22
2023-02-22T02:34:48.541Z,5.23
2023-02-22T02:37:23.585Z,5.23
2023-02-22T02:39:57.436Z,5.16
2023-02-22T02:42:32.342Z,5.29
2023-02-22T02:45:13.875Z,5.23
2023-02-22T02:47:46.488Z,5.22
2023-02-22T02:50:27.751Z,5.21
2023-02-22T02:52:59.074Z,5.24
2023-02-22T02:55:32.055Z,5.09
2023-02-22T02:58:00.512Z,5.13
2023-02-22T03:00:39.272Z,5.01
2023-02-22T03:03:26.204Z,4.94
2023-02-22T03:06:26.562Z,4.97
2023-02-22T03:09:00.210Z,5.04
2023-02-22T03:11:31.681Z,5.03
2023-02-22T03:14:10.190Z,5.12
2023-02-22T03:16:48.180Z,4.92
2023-02-22T03:19:23.948Z,5.09
2023-02-22T03:22:02.733Z,5.06
2023-02-22T03:24:36.664Z,5.06
2023-02-22T03:27:09.479Z,5.11
2023-02-22T03:29:43.252Z,5.16
2023-02-22T03:32:17.693Z,5.16
2023-02-22T03:34:52.942Z,5.01
2023-02-22T03:37:27.028Z,5.01
2023-02-22T03:39:56.611Z,4.88
2023-02-22T03:42:32.990Z,4.85
2023-02-22T03:45:05.665Z,4.96
2023-02-22T03:47:42.126Z,4.90
2023-02-22T03:50:15.252Z,4.81
2023-02-22T03:52:48.349Z,4.79
2023-02-22T03:55:20.984Z,4.87
2023-02-22T03:57:56.225Z,4.95
2023-02-22T04:00:28.191Z,5.13
2023-02-22T04:02:56.759Z,5.06
2023-02-22T04:05:28.505Z,5.09
2023-02-22T04:08:02.473Z,5.03
2023-02-22T04:10:31.318Z,4.86
2023-02-22T04:12:59.684Z,5.08
2023-02-22T04:15:35.652Z,5.10
2023-02-22T04:18:04.584Z,5.03
2023-02-22T04:20:32.877Z,4.91
2023-02-22T04:23:05.173Z,4.82
2023-02-22T04:25:33.590Z,4.91
2023-02-22T04:28:03.806Z,4.91
2023-02-22T04:30:32.607Z,4.95
2023-02-22T04:33:00.906Z,4.86
2023-02-22T04:35:35.319Z,4.78
2023-02-22T04:38:05.232Z,4.89
2023-02-22T04:40:33.865Z,4.79
2023-02-22T04:43:05.781Z,4.76
2023-02-22T04:45:48.760Z,4.62
2023-02-22T04:48:16.966Z,4.44
2023-02-22T04:50:45.457Z,4.54
2023-02-22T04:53:15.107Z,4.61
2023-02-22T04:55:46.337Z,4.65
2023-02-22T04:58:16.216Z,4.72
2023-02-22T05:00:48.159Z,4.71
2023-02-22T05:03:20.463Z,4.72
2023-02-22T05:05:53.281Z,4.80
2023-02-22T05:08:25.171Z,4.76
2023-02-22T05:10:53.353Z,4.70
2023-02-22T05:13:21.833Z,4.75
2023-02-22T05:15:50.221Z,4.79
2023-02-22T05:18:22.074Z,4.72
2023-02-22T05:20:51.215Z,4.75
2023-02-22T05:23:19.546Z,4.86
2023-02-22T05:25:52.662Z,4.74
2023-02-22T05:28:23.444Z,4.66
2023-02-22T05:30:51.743Z,4.72
2023-02-22T05:33:20.616Z,4.72
2023-02-22T05:35:49.807Z,4.84
2023-02-22T05:38:21.803Z,4.73
2023-02-22T05:40:55.399Z,4.60
2023-02-22T05:43:24.653Z,4.44
2023-02-22T05:45:56.109Z,4.49
2023-02-22T05:48:27.101Z,4.52
2023-02-22T05:50:58.729Z,4.36
2023-02-22T05:53:28.634Z,4.42
2023-02-22T05:55:58.962Z,4.33
2023-02-22T05:58:28.518Z,4.39
2023-02-22T06:01:03.063Z,4.41
2023-02-22T06:03:33.249Z,4.44
2023-02-22T06:06:01.564Z,4.46
2023-02-22T06:08:29.924Z,4.42
2023-02-22T06:10:59.420Z,4.44
2023-02-22T06:13:30.108Z,4.38
2023-02-22T06:16:00.168Z,4.25
2023-02-22T06:18:32.008Z,4.38
2023-02-22T06:21:01.125Z,4.38
2023-02-22T06:23:32.562Z,4.24
2023-02-22T06:26:02.260Z,4.17
2023-02-22T06:28:31.770Z,4.26
2023-02-22T06:31:01.324Z,4.25
2023-02-22T06:33:33.708Z,4.30
2023-02-22T06:36:03.906Z,4.30
2023-02-22T06:38:34.929Z,4.29
2023-02-22T06:41:08.499Z,4.29
2023-02-22T06:43:36.284Z,4.10
2023-02-22T06:46:06.048Z,4.36
2023-02-22T06:48:34.379Z,4.39
2023-02-22T06:51:03.079Z,4.44
2023-02-22T06:53:31.700Z,4.55
2023-02-22T06:56:01.406Z,4.61
2023-02-22T06:58:34.277Z,4.66
2023-02-22T07:01:04.080Z,4.65
2023-02-22T07:03:34.933Z,4.61
2023-02-22T07:06:05.345Z,4.70
2023-02-22T07:08:36.216Z,4.50
2023-02-22T07:11:06.548Z,4.72
2023-02-22T07:13:41.523Z,4.72
2023-02-22T07:16:14.475Z,5.00
2023-02-22T07:18:42.681Z,4.96
2023-02-22T07:21:12.108Z,4.88
2023-02-22T07:23:42.138Z,5.08
2023-02-22T07:26:13.485Z,5.07
2023-02-22T07:28:43.028Z,5.17
2023-02-22T07:31:21.292Z,5.16
2023-02-22T07:33:52.211Z,5.32
2023-02-22T07:36:20.983Z,5.34
2023-02-22T07:38:51.066Z,5.24
2023-02-22T07:41:23.003Z,5.42
2023-02-22T07:43:53.756Z,5.47
2023-02-22T07:46:27.093Z,5.41
2023-02-22T07:48:55.846Z,5.46
2023-02-22T07:51:29.704Z,5.55
2023-02-22T07:53:59.372Z,5.59
2023-02-22T07:56:37.345Z,5.68
2023-02-22T07:59:18.675Z,5.85
2023-02-22T08:01:47.059Z,5.88
2023-02-22T08:04:16.285Z,5.93
2023-02-22T08:06:47.173Z,6.10
2023-02-22T08:09:15.036Z,6.14
2023-02-22T08:11:43.548Z,6.18
2023-02-22T08:14:12.879Z,6.32
2023-02-22T08:16:41.312Z,6.32
2023-02-22T08:19:10.199Z,6.50
2023-02-22T08:21:39.342Z,6.59
2023-02-22T08:24:07.829Z,6.70
2023-02-22T08:26:37.466Z,6.82
2023-02-22T08:29:07.537Z,6.85
2023-02-22T08:31:39.955Z,7.01
2023-02-22T08:34:08.304Z,6.99
2023-02-22T08:36:39.101Z,7.08
2023-02-22T08:39:06.984Z,7.25
2023-02-22T08:41:37.315Z,7.34
2023-02-22T08:44:08.254Z,7.56
2023-02-22T08:46:36.825Z,7.62
2023-02-22T08:49:08.944Z,7.58
2023-02-22T08:51:38.658Z,7.75
2023-02-22T08:54:10.283Z,7.72
2023-02-22T08:56:49.783Z,8.01
2023-02-22T08:59:19.518Z,8.12
2023-02-22T09:01:51.984Z,8.06
2023-02-22T09:04:23.908Z,8.09
2023-02-22T09:06:53.233Z,8.35
2023-02-22T09:09:24.168Z,8.28
2023-02-22T09:11:55.386Z,8.13
2023-02-22T09:14:24.658Z,7.89
2023-02-22T09:16:53.032Z,7.56
2023-02-22T09:19:24.530Z,7.45
2023-02-22T09:21:56.693Z,7.49
2023-02-22T09:24:26.147Z,7.88
2023-02-22T09:26:56.379Z,7.89
2023-02-22T09:29:28.600Z,8.25
2023-02-22T09:31:58.970Z,8.53
2023-02-22T09:34:30.409Z,8.61
2023-02-22T09:36:58.596Z,8.72
2023-02-22T09:39:29.283Z,8.69
2023-02-22T09:42:04.707Z,8.34
2023-02-22T09:44:42.341Z,8.40
2023-02-22T09:47:20.491Z,8.61
2023-02-22T09:50:04.685Z,8.68
2023-02-22T09:52:37.641Z,8.94
2023-02-22T09:55:11.287Z,8.92
2023-02-22T09:57:44.033Z,8.88
2023-02-22T10:00:20.939Z,8.90
2023-02-22T10:03:00.794Z,8.92
2023-02-22T10:05:37.600Z,9.25
2023-02-22T10:08:12.675Z,9.36
2023-02-22T10:10:46.231Z,9.36
2023-02-22T10:13:27.741Z,9.66
2023-02-22T10:16:01.503Z,9.73
2023-02-22T10:19:08.557Z,9.59
2023-02-22T10:21:57.840Z,9.88
2023-02-22T10:24:40.916Z,9.75
2023-02-22T10:27:22.300Z,10.14
2023-02-22T10:29:55.181Z,9.85
2023-02-22T10:32:31.383Z,9.99
2023-02-22T10:35:07.585Z,10.02
2023-02-22T10:37:38.660Z,9.62
2023-02-22T10:40:17.417Z,9.63
2023-02-22T10:42:46.985Z,9.90
2023-02-22T10:45:23.172Z,9.42
2023-02-22T10:47:55.617Z,9.37
2023-02-22T10:50:23.888Z,9.41
2023-02-22T10:52:59.388Z,9.44
2023-02-22T10:55:29.171Z,9.77
2023-02-22T10:58:04.827Z,9.67
2023-02-22T11:00:37.565Z,9.84
2023-02-22T11:03:21.119Z,10.30
2023-02-22T11:05:50.314Z,10.84
2023-02-22T11:08:26.863Z,11.00
2023-02-22T11:10:57.516Z,11.29
2023-02-22T11:13:28.408Z,11.16
2023-02-22T11:15:59.508Z,11.11
2023-02-22T11:18:34.116Z,11.50
2023-02-22T11:21:06.451Z,11.73
2023-02-22T11:23:37.796Z,11.63
2023-02-22T11:26:11.188Z,11.36
2023-02-22T11:28:49.277Z,11.09
2023-02-22T11:31:22.518Z,11.41
2023-02-22T11:36:38.277Z,11.21
2023-02-22T11:39:25.531Z,11.77
2023-02-22T11:41:56.515Z,12.19
2023-02-22T11:44:34.881Z,12.17
2023-02-22T11:47:07.042Z,12.53
2023-02-22T11:49:38.188Z,12.48
2023-02-22T11:52:17.981Z,12.50
2023-02-22T11:55:32.641Z,12.54
2023-02-22T11:58:29.964Z,12.19
2023-02-22T12:01:07.414Z,12.74
2023-02-22T12:04:25.423Z,12.87
2023-02-22T12:07:08.666Z,13.16
2023-02-22T12:09:43.708Z,13.75
2023-02-22T12:12:28.946Z,13.04
2023-02-22T12:15:06.465Z,12.87
2023-02-22T12:17:59.265Z,13.31
2023-02-22T12:20:41.938Z,13.55
2023-02-22T12:23:20.127Z,13.47
2023-02-22T12:25:59.436Z,13.82
2023-02-22T12:28:39.003Z,13.79
2023-02-22T12:31:23.013Z,14.22
2023-02-22T12:34:03.245Z,14.27
2023-02-22T12:36:42.780Z,13.59
2023-02-22T12:39:29.976Z,14.49
2023-02-22T12:42:03.582Z,13.91
2023-02-22T12:44:38.307Z,14.44
2023-02-22T12:47:10.112Z,14.78
2023-02-22T12:49:44.918Z,14.49
2023-02-22T12:52:22.653Z,13.99
2023-02-22T12:55:00.275Z,13.91
2023-02-22T12:57:39.668Z,14.59
2023-02-22T13:00:20.183Z,14.57
2023-02-22T13:02:58.954Z,14.24
2023-02-22T13:05:29.074Z,14.16
2023-02-22T13:08:13.443Z,14.94
2023-02-22T13:11:08.919Z,15.08
2023-02-22T13:13:44.618Z,14.55
2023-02-22T13:16:33.339Z,14.94
2023-02-22T13:19:09.583Z,14.85
2023-02-22T13:21:50.078Z,15.17
2023-02-22T13:24:25.099Z,15.77
2023-02-22T13:26:58.618Z,15.57
2023-02-22T13:29:33.162Z,15.69
2023-02-22T13:32:20.142Z,15.41
2023-02-22T13:35:03.243Z,15.51
2023-02-22T13:38:02.174Z,15.38
2023-02-22T13:41:04.565Z,15.68
2023-02-22T13:44:04.197Z,15.88
2023-02-22T13:47:02.756Z,15.90
2023-02-22T13:49:52.409Z,15.21
2023-02-22T13:52:23.404Z,15.17
2023-02-22T13:54:57.330Z,15.40
2023-02-22T13:57:29.312Z,15.81
2023-02-22T14:00:23.101Z,15.67
2023-02-22T14:03:06.722Z,16.08
2023-02-22T14:05:49.979Z,16.37
2023-02-22T14:08:42.022Z,15.99
2023-02-22T14:11:54.589Z,15.98
2023-02-22T14:14:24.122Z,15.78
2023-02-22T14:17:28.092Z,15.46
2023-02-22T14:20:32.333Z,15.55
2023-02-22T14:23:36.511Z,15.46
2023-02-22T14:26:15.483Z,15.99
2023-02-22T14:28:52.365Z,15.77
2023-02-22T14:31:35.483Z,16.22
2023-02-22T14:34:10.817Z,16.04
2023-02-22T14:36:50.907Z,16.12
2023-02-22T14:39:29.453Z,15.78
2023-02-22T14:42:01.771Z,15.47
2023-02-22T14:44:35.851Z,15.67
2023-02-22T14:47:08.329Z,15.58
2023-02-22T14:49:41.611Z,15.58
2023-02-22T14:52:20.539Z,15.82
2023-02-22T14:55:06.892Z,15.96
2023-02-22T14:57:45.120Z,16.10
2023-02-22T15:00:22.680Z,15.33
2023-02-22T15:02:57.532Z,15.26
2023-02-22T15:08:18.007Z,15.21
2023-02-22T15:10:49.689Z,15.52
2023-02-22T15:13:24.412Z,14.94
2023-02-22T15:16:02.116Z,15.04
2023-02-22T15:18:39.555Z,15.19
2023-02-22T15:21:13.233Z,15.58
2023-02-22T15:23:49.845Z,15.14
2023-02-22T15:26:26.975Z,15.26
2023-02-22T15:28:56.579Z,15.52
2023-02-22T15:31:33.666Z,15.64
2023-02-22T15:34:24.493Z,15.26
2023-02-22T15:36:56.456Z,15.31
2023-02-22T15:39:27.349Z,15.38
2023-02-22T15:42:25.051Z,15.50
2023-02-22T15:44:58.099Z,15.17
2023-02-22T15:47:32.088Z,14.93
2023-02-22T15:50:22.334Z,14.92
2023-02-22T15:53:03.685Z,14.84
2023-02-22T15:55:35.549Z,15.35
2023-02-22T15:58:24.197Z,15.57
2023-02-22T16:01:02.675Z,15.35
2023-02-22T16:03:44.235Z,14.85
2023-02-22T16:06:18.683Z,14.55
2023-02-22T16:08:55.227Z,14.66
2023-02-22T16:11:31.212Z,14.63
2023-02-22T16:14:05.010Z,14.46
2023-02-22T16:16:41.943Z,14.21
2023-02-22T16:19:28.896Z,14.27
2023-02-22T16:22:04.670Z,14.06
2023-02-22T16:24:35.816Z,13.99
2023-02-22T16:27:22.586Z,14.05
2023-02-22T16:30:33.376Z,13.77
2023-02-22T16:33:06.612Z,13.56
2023-02-22T16:35:37.901Z,13.57
2023-02-22T16:38:09.364Z,13.31
2023-02-22T16:40:44.784Z,13.23
2023-02-22T16:43:16.627Z,13.22
2023-02-22T16:45:46.817Z,13.28
2023-02-22T16:48:18.302Z,13.36
2023-02-22T16:50:51.224Z,13.17
2023-02-22T16:53:22.384Z,12.87
2023-02-22T16:56:00.056Z,12.99
2023-02-22T16:58:32.449Z,12.97
2023-02-22T17:01:05.122Z,12.92
2023-02-22T17:03:35.803Z,12.93
2023-02-22T17:06:06.665Z,12.95
2023-02-22T17:08:36.761Z,12.75
2023-02-22T17:11:08.724Z,12.63
2023-02-22T17:13:37.501Z,12.45
2023-02-22T17:16:08.818Z,12.39
2023-02-22T17:18:39.257Z,12.41
2023-02-22T17:21:08.423Z,12.40
2023-02-22T17:23:38.827Z,12.65
2023-02-22T17:26:07.942Z,12.56
2023-02-22T17:28:36.077Z,12.36
2023-02-22T17:31:11.771Z,12.37
2023-02-22T17:33:41.453Z,12.24
2023-02-22T17:36:17.317Z,12.19
2023-02-22T17:38:47.004Z,12.31
2023-02-22T17:41:14.991Z,12.23
2023-02-22T17:43:42.925Z,12.13
2023-02-22T17:46:12.566Z,12.08
2023-02-22T17:48:43.547Z,11.93
2023-02-22T17:51:13.128Z,11.84
2023-02-22T17:53:42.124Z,11.78
2023-02-22T17:56:16.260Z,11.70
2023-02-22T17:58:44.425Z,11.69
2023-02-22T18:01:21.782Z,11.64
2023-02-22T18:03:54.734Z,11.60
2023-02-22T18:06:27.080Z,11.65
2023-02-22T18:08:56.917Z,11.47
2023-02-22T18:11:26.666Z,11.40
2023-02-22T18:13:55.158Z,11.48
2023-02-22T18:16:27.004Z,11.44
2023-02-22T18:19:03.361Z,11.50
2023-02-22T18:21:35.198Z,11.71
2023-02-22T18:24:04.182Z,11.48
2023-02-22T18:26:34.576Z,11.37
2023-02-22T18:29:19.605Z,11.55
2023-02-22T18:31:50.194Z,11.40
2023-02-22T18:34:25.251Z,11.23
2023-02-22T18:36:53.879Z,11.26
2023-02-22T18:39:22.346Z,11.17
2023-02-22T18:41:54.542Z,11.14
2023-02-22T18:44:23.901Z,11.28
2023-02-22T18:46:53.814Z,11.30
2023-02-22T18:49:27.166Z,11.26
2023-02-22T18:51:56.063Z,11.27
2023-02-22T18:54:28.039Z,11.24
2023-02-22T18:56:56.817Z,11.38
2023-02-22T18:59:25.212Z,11.53
2023-02-22T19:01:53.554Z,11.59
2023-02-22T19:04:22.901Z,11.50
2023-02-22T19:06:51.055Z,11.43
2023-02-22T19:09:19.279Z,11.39
2023-02-22T19:11:53.309Z,11.19
2023-02-22T19:14:24.166Z,11.14
2023-02-22T19:16:56.630Z,11.12
2023-02-22T19:19:27.594Z,11.10
2023-02-22T19:21:56.729Z,11.17
2023-02-22T19:24:31.194Z,11.17
2023-02-22T19:27:07.581Z,11.21
2023-02-22T19:29:38.720Z,11.14
2023-02-22T19:32:07.195Z,10.98
2023-02-22T19:34:37.821Z,10.85
2023-02-22T19:37:12.535Z,10.70
2023-02-22T19:39:42.261Z,10.58
2023-02-22T19:42:11.271Z,10.31
2023-02-22T19:44:39.247Z,10.13
2023-02-22T19:47:10.500Z,10.07
2023-02-22T19:49:42.275Z,10.11
2023-02-22T19:52:10.651Z,10.07
2023-02-22T19:54:41.051Z,10.13
2023-02-22T19:57:09.878Z,10.04
2023-02-22T19:59:39.032Z,9.95
2023-02-22T20:02:15.205Z,10.05
2023-02-22T20:04:44.803Z,10.07
2023-02-22T20:07:14.423Z,10.06
2023-02-22T20:09:44.779Z,10.13
2023-02-22T20:12:15.878Z,10.08
2023-02-22T20:14:46.197Z,9.94
2023-02-22T20:17:15.207Z,9.77
2023-02-22T20:19:49.139Z,9.77
2023-02-22T20:22:20.585Z,9.72
2023-02-22T20:24:50.096Z,9.74
2023-02-22T20:27:22.426Z,9.71
2023-02-22T20:29:51.018Z,9.57
2023-02-22T20:32:20.705Z,9.55
2023-02-22T20:34:57.912Z,9.48
2023-02-22T20:37:26.235Z,9.41
2023-02-22T20:40:00.614Z,9.39
2023-02-22T20:42:28.875Z,9.53
2023-02-22T20:45:12.273Z,9.63
2023-02-22T20:47:43.347Z,9.62
2023-02-22T20:50:15.266Z,9.67
2023-02-22T20:52:45.006Z,9.82
2023-02-22T20:55:15.054Z,9.82
2023-02-22T20:57:45.730Z,9.76
2023-02-22T21:00:17.972Z,9.72
2023-02-22T21:02:46.820Z,9.78
2023-02-22T21:05:20.069Z,9.87
2023-02-22T21:07:47.999Z,9.85
2023-02-22T21:10:20.934Z,9.89
2023-02-22T21:12:52.248Z,9.86
2023-02-22T21:15:26.284Z,9.87
2023-02-22T21:17:56.167Z,9.95
2023-02-22T21:20:26.321Z,10.10
2023-02-22T21:22:55.823Z,10.27
2023-02-22T21:25:29.628Z,10.39
2023-02-22T21:27:57.869Z,10.29
2023-02-22T21:30:25.889Z,10.37
2023-02-22T21:32:56.271Z,10.53
2023-02-22T21:35:29.551Z,10.66
2023-02-22T21:37:59.406Z,10.69
2023-02-22T21:40:28.293Z,10.61
2023-02-22T21:42:57.008Z,10.63
2023-02-22T21:45:27.230Z,10.94
2023-02-22T21:47:57.476Z,11.03
2023-02-22T21:50:30.183Z,11.26
2023-02-22T21:53:00.144Z,11.15
2023-02-22T21:55:30.147Z,11.21
2023-02-22T21:57:58.257Z,11.18
2023-02-22T22:00:31.338Z,11.29
2023-02-22T22:03:07.866Z,11.43
2023-02-22T22:05:39.939Z,11.34
2023-02-22T22:08:08.338Z,11.17
2023-02-22T22:10:37.731Z,11.09
2023-02-22T22:13:09.097Z,11.19
2023-02-22T22:15:41.210Z,10.91
2023-02-22T22:18:09.579Z,11.08
2023-02-22T22:20:40.545Z,10.91
2023-02-22T22:23:09.807Z,10.87
2023-02-22T22:25:39.118Z,10.76
2023-02-22T22:28:16.630Z,10.92
2023-02-22T22:30:45.197Z,10.78
2023-02-22T22:33:17.895Z,10.94
2023-02-22T22:35:49.315Z,10.90
2023-02-22T22:38:39.140Z,10.94
2023-02-22T22:41:07.702Z,10.94
2023-02-22T22:43:38.615Z,10.93
2023-02-22T22:46:10.344Z,11.00
2023-02-22T22:48:40.910Z,10.98
2023-02-22T22:51:17.204Z,11.01
2023-02-22T22:53:49.257Z,11.03
2023-02-22T22:56:20.255Z,11.03
2023-02-22T22:58:52.153Z,11.05
2023-02-22T23:01:29.942Z,11.05
2023-02-22T23:04:02.303Z,11.13
2023-02-22T23:06:35.207Z,11.08
2023-02-22T23:09:11.104Z,10.87
2023-02-22T23:11:44.187Z,11.05
2023-02-22T23:14:14.908Z,11.17
2023-02-22T23:16:45.341Z,11.32
2023-02-22T23:19:15.735Z,11.05
2023-02-22T23:21:45.732Z,11.11
2023-02-22T23:24:16.653Z,11.15
2023-02-22T23:26:48.971Z,11.08
2023-02-22T23:29:23.381Z,11.24
2023-02-22T23:31:58.027Z,11.20
2023-02-22T23:34:30.495Z,11.40
2023-02-22T23:36:59.637Z,11.49
2023-02-22T23:39:36.183Z,11.28
2023-02-22T23:42:09.296Z,11.54
2023-02-22T23:44:39.739Z,11.45
2023-02-22T23:47:09.682Z,11.32
2023-02-22T23:49:38.491Z,11.14
2023-02-22T23:52:23.875Z,11.21
2023-02-22T23:54:53.777Z,11.16
2023-02-22T23:57:21.923Z,11.33
2023-02-22T23:59:53.329Z,11.32
